sensor_id;sensor_type;location;lat;lon;timestamp;P1;durP1;ratioP1;P2;durP2;ratioP2
57856;SDS011;43683;48.650;9.290;2023-12-04T00:01:49;27.00;;;19.25;;
57856;SDS011;43683;48.650;9.290;2023-12-04T00:04:15;26.17;;;18.60;;
57856;SDS011;43683;48.650;9.290;2023-12-04T00:06:41;26.08;;;18.95;;
57856;SDS011;43683;48.650;9.290;2023-12-04T00:09:07;27.88;;;19.10;;
57856;SDS011;43683;48.650;9.290;2023-12-04T00:11:32;30.88;;;19.30;;
57856;SDS011;43683;48.650;9.290;2023-12-04T00:13:58;28.15;;;18.08;;
57856;SDS011;43683;48.650;9.290;2023-12-04T00:16:24;26.02;;;18.30;;
57856;SDS011;43683;48.650;9.290;2023-12-04T00:18:49;28.85;;;19.35;;
57856;SDS011;43683;48.650;9.290;2023-12-04T00:21:15;28.38;;;18.95;;
57856;SDS011;43683;48.650;9.290;2023-12-04T00:23:40;32.67;;;19.77;;
57856;SDS011;43683;48.650;9.290;2023-12-04T00:26:06;28.38;;;17.88;;
57856;SDS011;43683;48.650;9.290;2023-12-04T00:28:32;33.13;;;21.13;;
57856;SDS011;43683;48.650;9.290;2023-12-04T00:31:00;35.38;;;20.65;;
57856;SDS011;43683;48.650;9.290;2023-12-04T00:33:26;32.22;;;21.02;;
57856;SDS011;43683;48.650;9.290;2023-12-04T00:35:51;29.25;;;18.90;;
57856;SDS011;43683;48.650;9.290;2023-12-04T00:38:16;31.17;;;19.60;;
57856;SDS011;43683;48.650;9.290;2023-12-04T00:40:42;29.80;;;20.27;;
57856;SDS011;43683;48.650;9.290;2023-12-04T00:43:08;27.05;;;17.77;;
57856;SDS011;43683;48.650;9.290;2023-12-04T00:45:33;28.88;;;19.05;;
57856;SDS011;43683;48.650;9.290;2023-12-04T00:47:59;32.00;;;20.92;;
57856;SDS011;43683;48.650;9.290;2023-12-04T00:50:25;32.63;;;20.95;;
57856;SDS011;43683;48.650;9.290;2023-12-04T00:52:50;30.17;;;19.48;;
57856;SDS011;43683;48.650;9.290;2023-12-04T00:55:16;30.75;;;20.40;;
57856;SDS011;43683;48.650;9.290;2023-12-04T00:57:41;30.80;;;19.70;;
57856;SDS011;43683;48.650;9.290;2023-12-04T01:00:07;34.47;;;20.40;;
57856;SDS011;43683;48.650;9.290;2023-12-04T01:02:33;31.13;;;20.02;;
57856;SDS011;43683;48.650;9.290;2023-12-04T01:04:59;31.23;;;20.35;;
57856;SDS011;43683;48.650;9.290;2023-12-04T01:07:24;34.13;;;20.98;;
57856;SDS011;43683;48.650;9.290;2023-12-04T01:09:50;28.75;;;18.67;;
57856;SDS011;43683;48.650;9.290;2023-12-04T01:12:15;33.80;;;20.77;;
57856;SDS011;43683;48.650;9.290;2023-12-04T01:14:41;33.00;;;21.48;;
57856;SDS011;43683;48.650;9.290;2023-12-04T01:17:06;29.73;;;19.75;;
57856;SDS011;43683;48.650;9.290;2023-12-04T01:19:32;33.45;;;20.13;;
57856;SDS011;43683;48.650;9.290;2023-12-04T01:21:58;29.55;;;19.33;;
57856;SDS011;43683;48.650;9.290;2023-12-04T01:24:23;29.27;;;19.92;;
57856;SDS011;43683;48.650;9.290;2023-12-04T01:26:49;30.38;;;19.00;;
57856;SDS011;43683;48.650;9.290;2023-12-04T01:29:14;35.53;;;21.75;;
57856;SDS011;43683;48.650;9.290;2023-12-04T01:31:40;31.98;;;19.17;;
57856;SDS011;43683;48.650;9.290;2023-12-04T01:34:06;27.85;;;19.23;;
57856;SDS011;43683;48.650;9.290;2023-12-04T01:36:31;27.42;;;17.85;;
57856;SDS011;43683;48.650;9.290;2023-12-04T01:38:57;28.05;;;18.35;;
57856;SDS011;43683;48.650;9.290;2023-12-04T01:41:22;29.95;;;18.55;;
57856;SDS011;43683;48.650;9.290;2023-12-04T01:43:48;27.60;;;18.00;;
57856;SDS011;43683;48.650;9.290;2023-12-04T01:46:15;28.42;;;17.92;;
57856;SDS011;43683;48.650;9.290;2023-12-04T01:48:43;28.85;;;18.75;;
57856;SDS011;43683;48.650;9.290;2023-12-04T01:51:10;26.00;;;18.92;;
57856;SDS011;43683;48.650;9.290;2023-12-04T01:53:38;30.10;;;19.67;;
57856;SDS011;43683;48.650;9.290;2023-12-04T01:56:04;29.27;;;18.35;;
57856;SDS011;43683;48.650;9.290;2023-12-04T01:58:31;25.83;;;17.92;;
57856;SDS011;43683;48.650;9.290;2023-12-04T02:00:57;31.65;;;19.25;;
57856;SDS011;43683;48.650;9.290;2023-12-04T02:03:23;27.65;;;18.58;;
57856;SDS011;43683;48.650;9.290;2023-12-04T02:05:49;27.10;;;18.40;;
57856;SDS011;43683;48.650;9.290;2023-12-04T02:08:16;27.75;;;18.17;;
57856;SDS011;43683;48.650;9.290;2023-12-04T02:10:42;29.77;;;19.05;;
57856;SDS011;43683;48.650;9.290;2023-12-04T02:13:07;31.05;;;18.02;;
57856;SDS011;43683;48.650;9.290;2023-12-04T02:15:34;29.95;;;19.20;;
57856;SDS011;43683;48.650;9.290;2023-12-04T02:17:59;27.70;;;19.02;;
57856;SDS011;43683;48.650;9.290;2023-12-04T02:20:32;29.15;;;19.15;;
57856;SDS011;43683;48.650;9.290;2023-12-04T02:22:58;26.15;;;18.20;;
57856;SDS011;43683;48.650;9.290;2023-12-04T02:25:24;28.02;;;18.27;;
57856;SDS011;43683;48.650;9.290;2023-12-04T02:27:50;26.55;;;17.35;;
57856;SDS011;43683;48.650;9.290;2023-12-04T02:30:19;26.42;;;17.05;;
57856;SDS011;43683;48.650;9.290;2023-12-04T02:32:48;25.80;;;17.45;;
57856;SDS011;43683;48.650;9.290;2023-12-04T02:35:15;25.87;;;16.50;;
57856;SDS011;43683;48.650;9.290;2023-12-04T02:37:45;27.00;;;18.52;;
57856;SDS011;43683;48.650;9.290;2023-12-04T02:40:13;25.45;;;17.10;;
57856;SDS011;43683;48.650;9.290;2023-12-04T02:42:39;31.10;;;19.45;;
57856;SDS011;43683;48.650;9.290;2023-12-04T02:45:05;26.60;;;18.08;;
57856;SDS011;43683;48.650;9.290;2023-12-04T02:47:31;28.08;;;18.45;;
57856;SDS011;43683;48.650;9.290;2023-12-04T02:49:56;30.70;;;20.60;;
57856;SDS011;43683;48.650;9.290;2023-12-04T02:52:22;28.88;;;19.10;;
57856;SDS011;43683;48.650;9.290;2023-12-04T02:54:48;31.27;;;19.73;;
57856;SDS011;43683;48.650;9.290;2023-12-04T02:57:13;30.98;;;19.42;;
57856;SDS011;43683;48.650;9.290;2023-12-04T02:59:39;27.77;;;18.98;;
57856;SDS011;43683;48.650;9.290;2023-12-04T03:02:04;36.10;;;21.90;;
57856;SDS011;43683;48.650;9.290;2023-12-04T03:04:30;32.85;;;21.67;;
57856;SDS011;43683;48.650;9.290;2023-12-04T03:06:56;37.13;;;22.48;;
57856;SDS011;43683;48.650;9.290;2023-12-04T03:09:21;34.70;;;21.65;;
57856;SDS011;43683;48.650;9.290;2023-12-04T03:11:47;34.78;;;22.33;;
57856;SDS011;43683;48.650;9.290;2023-12-04T03:14:13;32.28;;;22.00;;
57856;SDS011;43683;48.650;9.290;2023-12-04T03:16:39;36.08;;;22.67;;
57856;SDS011;43683;48.650;9.290;2023-12-04T03:19:04;32.85;;;21.58;;
57856;SDS011;43683;48.650;9.290;2023-12-04T03:21:30;33.58;;;21.35;;
57856;SDS011;43683;48.650;9.290;2023-12-04T03:23:56;36.35;;;21.85;;
57856;SDS011;43683;48.650;9.290;2023-12-04T03:26:21;29.58;;;19.88;;
57856;SDS011;43683;48.650;9.290;2023-12-04T03:28:47;33.53;;;21.65;;
57856;SDS011;43683;48.650;9.290;2023-12-04T03:31:12;32.38;;;21.75;;
57856;SDS011;43683;48.650;9.290;2023-12-04T03:33:38;33.65;;;21.23;;
57856;SDS011;43683;48.650;9.290;2023-12-04T03:36:03;32.90;;;22.23;;
57856;SDS011;43683;48.650;9.290;2023-12-04T03:38:29;35.97;;;22.85;;
57856;SDS011;43683;48.650;9.290;2023-12-04T03:40:55;36.08;;;20.67;;
57856;SDS011;43683;48.650;9.290;2023-12-04T03:43:20;31.77;;;20.63;;
57856;SDS011;43683;48.650;9.290;2023-12-04T03:45:46;33.50;;;22.15;;
57856;SDS011;43683;48.650;9.290;2023-12-04T03:48:11;32.38;;;20.75;;
57856;SDS011;43683;48.650;9.290;2023-12-04T03:50:37;34.35;;;21.50;;
57856;SDS011;43683;48.650;9.290;2023-12-04T03:53:02;29.98;;;19.83;;
57856;SDS011;43683;48.650;9.290;2023-12-04T03:55:28;28.23;;;18.95;;
57856;SDS011;43683;48.650;9.290;2023-12-04T03:57:54;28.23;;;18.83;;
57856;SDS011;43683;48.650;9.290;2023-12-04T04:00:20;28.80;;;19.23;;
57856;SDS011;43683;48.650;9.290;2023-12-04T04:02:46;27.92;;;19.67;;
57856;SDS011;43683;48.650;9.290;2023-12-04T04:05:11;29.15;;;19.17;;
57856;SDS011;43683;48.650;9.290;2023-12-04T04:07:37;28.15;;;18.58;;
57856;SDS011;43683;48.650;9.290;2023-12-04T04:10:03;26.17;;;17.58;;
57856;SDS011;43683;48.650;9.290;2023-12-04T04:12:31;28.90;;;19.58;;
57856;SDS011;43683;48.650;9.290;2023-12-04T04:14:58;28.10;;;18.35;;
57856;SDS011;43683;48.650;9.290;2023-12-04T04:17:23;26.45;;;19.55;;
57856;SDS011;43683;48.650;9.290;2023-12-04T04:19:51;27.67;;;19.70;;
57856;SDS011;43683;48.650;9.290;2023-12-04T04:22:17;28.75;;;18.70;;
57856;SDS011;43683;48.650;9.290;2023-12-04T04:24:42;30.48;;;20.02;;
57856;SDS011;43683;48.650;9.290;2023-12-04T04:27:08;28.30;;;19.25;;
57856;SDS011;43683;48.650;9.290;2023-12-04T04:29:33;31.48;;;19.88;;
57856;SDS011;43683;48.650;9.290;2023-12-04T04:31:59;31.95;;;20.30;;
57856;SDS011;43683;48.650;9.290;2023-12-04T04:34:25;35.35;;;21.05;;
57856;SDS011;43683;48.650;9.290;2023-12-04T04:36:50;33.40;;;20.65;;
57856;SDS011;43683;48.650;9.290;2023-12-04T04:39:16;31.15;;;20.13;;
57856;SDS011;43683;48.650;9.290;2023-12-04T04:41:41;33.47;;;21.35;;
57856;SDS011;43683;48.650;9.290;2023-12-04T04:44:07;31.77;;;21.55;;
57856;SDS011;43683;48.650;9.290;2023-12-04T04:46:32;34.28;;;21.13;;
57856;SDS011;43683;48.650;9.290;2023-12-04T04:48:58;52.15;;;25.20;;
57856;SDS011;43683;48.650;9.290;2023-12-04T04:51:23;40.17;;;22.85;;
57856;SDS011;43683;48.650;9.290;2023-12-04T04:53:49;32.58;;;20.80;;
57856;SDS011;43683;48.650;9.290;2023-12-04T04:56:14;30.67;;;22.05;;
57856;SDS011;43683;48.650;9.290;2023-12-04T04:58:40;33.08;;;24.88;;
57856;SDS011;43683;48.650;9.290;2023-12-04T05:01:06;35.00;;;26.42;;
57856;SDS011;43683;48.650;9.290;2023-12-04T05:03:32;33.08;;;21.80;;
57856;SDS011;43683;48.650;9.290;2023-12-04T05:05:57;35.45;;;22.25;;
57856;SDS011;43683;48.650;9.290;2023-12-04T05:08:23;28.52;;;20.95;;
57856;SDS011;43683;48.650;9.290;2023-12-04T05:10:48;27.70;;;20.35;;
57856;SDS011;43683;48.650;9.290;2023-12-04T05:13:14;27.60;;;19.13;;
57856;SDS011;43683;48.650;9.290;2023-12-04T05:15:39;29.35;;;18.45;;
57856;SDS011;43683;48.650;9.290;2023-12-04T05:18:05;28.13;;;18.08;;
57856;SDS011;43683;48.650;9.290;2023-12-04T05:20:30;26.92;;;19.08;;
57856;SDS011;43683;48.650;9.290;2023-12-04T05:22:56;26.13;;;18.40;;
57856;SDS011;43683;48.650;9.290;2023-12-04T05:25:22;28.60;;;19.08;;
57856;SDS011;43683;48.650;9.290;2023-12-04T05:27:47;25.83;;;18.77;;
57856;SDS011;43683;48.650;9.290;2023-12-04T05:30:13;30.25;;;19.83;;
57856;SDS011;43683;48.650;9.290;2023-12-04T05:32:39;28.85;;;21.05;;
57856;SDS011;43683;48.650;9.290;2023-12-04T05:35:04;26.30;;;19.02;;
57856;SDS011;43683;48.650;9.290;2023-12-04T05:37:30;29.05;;;19.70;;
57856;SDS011;43683;48.650;9.290;2023-12-04T05:39:56;26.88;;;18.65;;
57856;SDS011;43683;48.650;9.290;2023-12-04T05:42:21;23.90;;;17.27;;
57856;SDS011;43683;48.650;9.290;2023-12-04T05:44:47;28.13;;;18.80;;
57856;SDS011;43683;48.650;9.290;2023-12-04T05:47:12;25.15;;;17.40;;
57856;SDS011;43683;48.650;9.290;2023-12-04T05:49:39;23.63;;;17.25;;
57856;SDS011;43683;48.650;9.290;2023-12-04T05:52:05;28.58;;;18.40;;
57856;SDS011;43683;48.650;9.290;2023-12-04T05:54:31;27.02;;;18.13;;
57856;SDS011;43683;48.650;9.290;2023-12-04T05:56:56;24.83;;;17.50;;
57856;SDS011;43683;48.650;9.290;2023-12-04T05:59:22;24.33;;;16.90;;
57856;SDS011;43683;48.650;9.290;2023-12-04T06:01:47;28.77;;;18.33;;
57856;SDS011;43683;48.650;9.290;2023-12-04T06:04:13;24.70;;;17.80;;
57856;SDS011;43683;48.650;9.290;2023-12-04T06:06:38;27.52;;;19.02;;
57856;SDS011;43683;48.650;9.290;2023-12-04T06:09:04;29.10;;;20.33;;
57856;SDS011;43683;48.650;9.290;2023-12-04T06:11:30;25.88;;;19.30;;
57856;SDS011;43683;48.650;9.290;2023-12-04T06:13:55;27.52;;;19.88;;
57856;SDS011;43683;48.650;9.290;2023-12-04T06:16:21;29.17;;;20.20;;
57856;SDS011;43683;48.650;9.290;2023-12-04T06:18:46;30.90;;;22.67;;
57856;SDS011;43683;48.650;9.290;2023-12-04T06:21:12;29.65;;;21.60;;
57856;SDS011;43683;48.650;9.290;2023-12-04T06:23:38;29.10;;;21.13;;
57856;SDS011;43683;48.650;9.290;2023-12-04T06:26:03;29.55;;;20.55;;
57856;SDS011;43683;48.650;9.290;2023-12-04T06:28:30;31.90;;;23.08;;
57856;SDS011;43683;48.650;9.290;2023-12-04T06:30:55;36.10;;;25.55;;
57856;SDS011;43683;48.650;9.290;2023-12-04T06:33:21;29.38;;;20.33;;
57856;SDS011;43683;48.650;9.290;2023-12-04T06:35:47;28.95;;;19.05;;
57856;SDS011;43683;48.650;9.290;2023-12-04T06:38:14;28.50;;;19.63;;
57856;SDS011;43683;48.650;9.290;2023-12-04T06:40:41;25.05;;;18.50;;
57856;SDS011;43683;48.650;9.290;2023-12-04T06:43:07;23.58;;;18.08;;
57856;SDS011;43683;48.650;9.290;2023-12-04T06:45:32;25.80;;;18.33;;
57856;SDS011;43683;48.650;9.290;2023-12-04T06:47:58;26.27;;;19.15;;
57856;SDS011;43683;48.650;9.290;2023-12-04T06:50:25;29.57;;;20.70;;
57856;SDS011;43683;48.650;9.290;2023-12-04T06:52:51;31.90;;;21.38;;
57856;SDS011;43683;48.650;9.290;2023-12-04T06:55:16;28.23;;;19.70;;
57856;SDS011;43683;48.650;9.290;2023-12-04T06:57:42;34.85;;;23.83;;
57856;SDS011;43683;48.650;9.290;2023-12-04T07:00:08;32.78;;;23.05;;
57856;SDS011;43683;48.650;9.290;2023-12-04T07:02:37;37.75;;;26.75;;
57856;SDS011;43683;48.650;9.290;2023-12-04T07:05:03;35.00;;;23.13;;
57856;SDS011;43683;48.650;9.290;2023-12-04T07:07:29;27.75;;;20.60;;
57856;SDS011;43683;48.650;9.290;2023-12-04T07:09:54;27.35;;;19.17;;
57856;SDS011;43683;48.650;9.290;2023-12-04T07:12:20;26.70;;;18.15;;
57856;SDS011;43683;48.650;9.290;2023-12-04T07:14:45;29.08;;;20.80;;
57856;SDS011;43683;48.650;9.290;2023-12-04T07:17:11;27.17;;;19.92;;
57856;SDS011;43683;48.650;9.290;2023-12-04T07:19:36;29.80;;;19.67;;
57856;SDS011;43683;48.650;9.290;2023-12-04T07:22:02;27.25;;;19.48;;
57856;SDS011;43683;48.650;9.290;2023-12-04T07:24:27;26.20;;;19.02;;
57856;SDS011;43683;48.650;9.290;2023-12-04T07:26:53;26.70;;;18.55;;
57856;SDS011;43683;48.650;9.290;2023-12-04T07:29:19;28.90;;;20.80;;
57856;SDS011;43683;48.650;9.290;2023-12-04T07:31:44;26.95;;;19.05;;
57856;SDS011;43683;48.650;9.290;2023-12-04T07:34:10;29.92;;;20.83;;
57856;SDS011;43683;48.650;9.290;2023-12-04T07:36:35;29.45;;;20.17;;
57856;SDS011;43683;48.650;9.290;2023-12-04T07:39:01;33.13;;;22.92;;
57856;SDS011;43683;48.650;9.290;2023-12-04T07:41:26;33.58;;;22.00;;
57856;SDS011;43683;48.650;9.290;2023-12-04T07:43:52;35.03;;;22.27;;
57856;SDS011;43683;48.650;9.290;2023-12-04T07:46:17;26.20;;;18.17;;
57856;SDS011;43683;48.650;9.290;2023-12-04T07:48:43;26.58;;;19.40;;
57856;SDS011;43683;48.650;9.290;2023-12-04T07:51:09;26.45;;;18.17;;
57856;SDS011;43683;48.650;9.290;2023-12-04T07:53:34;30.98;;;21.85;;
57856;SDS011;43683;48.650;9.290;2023-12-04T07:56:03;32.70;;;22.33;;
57856;SDS011;43683;48.650;9.290;2023-12-04T07:58:29;31.85;;;21.75;;
57856;SDS011;43683;48.650;9.290;2023-12-04T08:00:56;34.55;;;25.02;;
57856;SDS011;43683;48.650;9.290;2023-12-04T08:03:22;31.20;;;21.98;;
57856;SDS011;43683;48.650;9.290;2023-12-04T08:05:48;73.60;;;44.65;;
57856;SDS011;43683;48.650;9.290;2023-12-04T08:08:15;38.05;;;24.73;;
57856;SDS011;43683;48.650;9.290;2023-12-04T08:10:40;41.20;;;27.95;;
57856;SDS011;43683;48.650;9.290;2023-12-04T08:13:06;36.10;;;25.17;;
57856;SDS011;43683;48.650;9.290;2023-12-04T08:15:31;37.33;;;24.70;;
57856;SDS011;43683;48.650;9.290;2023-12-04T08:17:57;27.77;;;18.70;;
57856;SDS011;43683;48.650;9.290;2023-12-04T08:20:23;28.65;;;18.08;;
57856;SDS011;43683;48.650;9.290;2023-12-04T08:22:48;25.42;;;16.58;;
57856;SDS011;43683;48.650;9.290;2023-12-04T08:25:14;27.45;;;18.25;;
57856;SDS011;43683;48.650;9.290;2023-12-04T08:27:40;30.30;;;18.27;;
57856;SDS011;43683;48.650;9.290;2023-12-04T08:30:05;27.67;;;17.70;;
57856;SDS011;43683;48.650;9.290;2023-12-04T08:32:31;28.83;;;17.65;;
57856;SDS011;43683;48.650;9.290;2023-12-04T08:34:57;24.90;;;15.32;;
57856;SDS011;43683;48.650;9.290;2023-12-04T08:37:22;25.70;;;15.50;;
57856;SDS011;43683;48.650;9.290;2023-12-04T08:39:48;24.20;;;16.30;;
57856;SDS011;43683;48.650;9.290;2023-12-04T08:42:15;25.10;;;15.23;;
57856;SDS011;43683;48.650;9.290;2023-12-04T08:44:40;22.30;;;14.38;;
57856;SDS011;43683;48.650;9.290;2023-12-04T08:47:06;22.85;;;14.38;;
57856;SDS011;43683;48.650;9.290;2023-12-04T08:49:31;23.75;;;13.95;;
57856;SDS011;43683;48.650;9.290;2023-12-04T08:51:59;24.83;;;13.73;;
57856;SDS011;43683;48.650;9.290;2023-12-04T08:54:24;21.90;;;13.13;;
57856;SDS011;43683;48.650;9.290;2023-12-04T08:56:50;22.75;;;14.45;;
57856;SDS011;43683;48.650;9.290;2023-12-04T08:59:16;21.65;;;12.98;;
57856;SDS011;43683;48.650;9.290;2023-12-04T09:01:41;20.17;;;13.13;;
57856;SDS011;43683;48.650;9.290;2023-12-04T09:04:08;23.15;;;13.25;;
57856;SDS011;43683;48.650;9.290;2023-12-04T09:06:34;24.15;;;14.50;;
57856;SDS011;43683;48.650;9.290;2023-12-04T09:09:00;21.67;;;13.43;;
57856;SDS011;43683;48.650;9.290;2023-12-04T09:11:25;21.85;;;12.55;;
57856;SDS011;43683;48.650;9.290;2023-12-04T09:13:51;23.98;;;14.00;;
57856;SDS011;43683;48.650;9.290;2023-12-04T09:16:17;20.52;;;12.93;;
57856;SDS011;43683;48.650;9.290;2023-12-04T09:18:42;20.92;;;11.98;;
57856;SDS011;43683;48.650;9.290;2023-12-04T09:21:08;23.15;;;14.45;;
57856;SDS011;43683;48.650;9.290;2023-12-04T09:23:34;21.35;;;13.13;;
57856;SDS011;43683;48.650;9.290;2023-12-04T09:26:00;21.83;;;13.63;;
57856;SDS011;43683;48.650;9.290;2023-12-04T09:28:25;22.35;;;14.20;;
57856;SDS011;43683;48.650;9.290;2023-12-04T09:30:51;19.13;;;13.07;;
57856;SDS011;43683;48.650;9.290;2023-12-04T09:33:16;24.88;;;14.43;;
57856;SDS011;43683;48.650;9.290;2023-12-04T09:35:42;27.83;;;17.95;;
57856;SDS011;43683;48.650;9.290;2023-12-04T09:38:07;36.78;;;22.17;;
57856;SDS011;43683;48.650;9.290;2023-12-04T09:40:33;28.98;;;18.15;;
57856;SDS011;43683;48.650;9.290;2023-12-04T09:42:59;22.20;;;15.25;;
57856;SDS011;43683;48.650;9.290;2023-12-04T09:45:24;25.88;;;15.68;;
57856;SDS011;43683;48.650;9.290;2023-12-04T09:47:50;24.45;;;14.95;;
57856;SDS011;43683;48.650;9.290;2023-12-04T09:50:16;26.10;;;16.80;;
57856;SDS011;43683;48.650;9.290;2023-12-04T09:52:46;28.73;;;17.98;;
57856;SDS011;43683;48.650;9.290;2023-12-04T09:55:15;25.17;;;16.25;;
57856;SDS011;43683;48.650;9.290;2023-12-04T09:57:41;25.10;;;16.30;;
57856;SDS011;43683;48.650;9.290;2023-12-04T10:00:11;27.08;;;17.42;;
57856;SDS011;43683;48.650;9.290;2023-12-04T10:02:39;23.73;;;16.42;;
57856;SDS011;43683;48.650;9.290;2023-12-04T10:05:05;29.60;;;16.73;;
57856;SDS011;43683;48.650;9.290;2023-12-04T10:07:32;25.17;;;18.38;;
57856;SDS011;43683;48.650;9.290;2023-12-04T10:09:57;26.20;;;17.02;;
57856;SDS011;43683;48.650;9.290;2023-12-04T10:12:23;25.92;;;16.90;;
57856;SDS011;43683;48.650;9.290;2023-12-04T10:15:02;23.55;;;15.65;;
57856;SDS011;43683;48.650;9.290;2023-12-04T10:17:32;26.20;;;16.60;;
57856;SDS011;43683;48.650;9.290;2023-12-04T10:20:09;24.10;;;14.18;;
57856;SDS011;43683;48.650;9.290;2023-12-04T10:22:37;23.05;;;14.05;;
57856;SDS011;43683;48.650;9.290;2023-12-04T10:25:13;22.65;;;15.60;;
57856;SDS011;43683;48.650;9.290;2023-12-04T10:27:40;23.10;;;14.48;;
57856;SDS011;43683;48.650;9.290;2023-12-04T10:30:06;19.63;;;13.32;;
57856;SDS011;43683;48.650;9.290;2023-12-04T10:32:36;20.35;;;13.10;;
57856;SDS011;43683;48.650;9.290;2023-12-04T10:35:03;20.48;;;12.30;;
57856;SDS011;43683;48.650;9.290;2023-12-04T10:37:35;19.67;;;11.60;;
57856;SDS011;43683;48.650;9.290;2023-12-04T10:40:02;17.80;;;12.40;;
57856;SDS011;43683;48.650;9.290;2023-12-04T10:42:28;19.83;;;11.57;;
57856;SDS011;43683;48.650;9.290;2023-12-04T10:44:55;17.17;;;12.20;;
57856;SDS011;43683;48.650;9.290;2023-12-04T10:47:25;19.20;;;12.27;;
57856;SDS011;43683;48.650;9.290;2023-12-04T10:49:52;19.25;;;11.73;;
57856;SDS011;43683;48.650;9.290;2023-12-04T10:52:18;18.58;;;11.25;;
57856;SDS011;43683;48.650;9.290;2023-12-04T10:54:44;16.75;;;11.02;;
57856;SDS011;43683;48.650;9.290;2023-12-04T10:57:16;16.70;;;11.18;;
57856;SDS011;43683;48.650;9.290;2023-12-04T11:00:01;17.63;;;10.85;;
57856;SDS011;43683;48.650;9.290;2023-12-04T11:02:28;17.92;;;10.55;;
57856;SDS011;43683;48.650;9.290;2023-12-04T11:04:58;18.02;;;10.80;;
57856;SDS011;43683;48.650;9.290;2023-12-04T11:07:34;15.40;;;10.48;;
57856;SDS011;43683;48.650;9.290;2023-12-04T11:10:01;14.50;;;9.25;;
57856;SDS011;43683;48.650;9.290;2023-12-04T11:12:29;15.75;;;10.82;;
57856;SDS011;43683;48.650;9.290;2023-12-04T11:14:56;14.25;;;9.45;;
57856;SDS011;43683;48.650;9.290;2023-12-04T11:17:27;16.13;;;9.45;;
57856;SDS011;43683;48.650;9.290;2023-12-04T11:19:59;14.25;;;9.95;;
57856;SDS011;43683;48.650;9.290;2023-12-04T11:22:32;13.32;;;8.50;;
57856;SDS011;43683;48.650;9.290;2023-12-04T11:25:00;12.63;;;8.05;;
57856;SDS011;43683;48.650;9.290;2023-12-04T11:27:30;15.38;;;10.30;;
57856;SDS011;43683;48.650;9.290;2023-12-04T11:29:56;16.80;;;9.55;;
57856;SDS011;43683;48.650;9.290;2023-12-04T11:32:23;15.13;;;9.05;;
57856;SDS011;43683;48.650;9.290;2023-12-04T11:34:50;14.02;;;8.52;;
57856;SDS011;43683;48.650;9.290;2023-12-04T11:37:19;14.70;;;8.07;;
57856;SDS011;43683;48.650;9.290;2023-12-04T11:39:49;15.40;;;9.43;;
57856;SDS011;43683;48.650;9.290;2023-12-04T11:42:33;19.63;;;13.98;;
57856;SDS011;43683;48.650;9.290;2023-12-04T11:44:59;20.80;;;12.77;;
57856;SDS011;43683;48.650;9.290;2023-12-04T11:47:24;19.20;;;12.15;;
57856;SDS011;43683;48.650;9.290;2023-12-04T11:52:18;18.98;;;12.20;;
57856;SDS011;43683;48.650;9.290;2023-12-04T11:55:01;15.35;;;10.00;;
57856;SDS011;43683;48.650;9.290;2023-12-04T11:57:33;14.48;;;9.70;;
57856;SDS011;43683;48.650;9.290;2023-12-04T12:00:07;14.52;;;9.63;;
57856;SDS011;43683;48.650;9.290;2023-12-04T12:02:34;15.82;;;9.35;;
57856;SDS011;43683;48.650;9.290;2023-12-04T12:05:00;14.05;;;9.38;;
57856;SDS011;43683;48.650;9.290;2023-12-04T12:07:27;14.90;;;9.40;;
57856;SDS011;43683;48.650;9.290;2023-12-04T12:09:52;14.75;;;9.07;;
57856;SDS011;43683;48.650;9.290;2023-12-04T12:12:18;13.48;;;9.20;;
57856;SDS011;43683;48.650;9.290;2023-12-04T12:14:43;15.55;;;9.02;;
57856;SDS011;43683;48.650;9.290;2023-12-04T12:17:09;14.02;;;9.27;;
57856;SDS011;43683;48.650;9.290;2023-12-04T12:19:35;13.48;;;8.95;;
57856;SDS011;43683;48.650;9.290;2023-12-04T12:22:00;14.25;;;8.95;;
57856;SDS011;43683;48.650;9.290;2023-12-04T12:24:26;14.02;;;8.88;;
57856;SDS011;43683;48.650;9.290;2023-12-04T12:26:51;17.27;;;11.35;;
57856;SDS011;43683;48.650;9.290;2023-12-04T12:29:18;18.27;;;11.33;;
57856;SDS011;43683;48.650;9.290;2023-12-04T12:31:44;16.48;;;11.25;;
57856;SDS011;43683;48.650;9.290;2023-12-04T12:34:11;18.70;;;11.98;;
57856;SDS011;43683;48.650;9.290;2023-12-04T12:36:36;18.80;;;12.20;;
57856;SDS011;43683;48.650;9.290;2023-12-04T12:39:03;17.08;;;11.77;;
57856;SDS011;43683;48.650;9.290;2023-12-04T12:41:29;18.45;;;11.88;;
57856;SDS011;43683;48.650;9.290;2023-12-04T12:43:55;22.00;;;13.57;;
57856;SDS011;43683;48.650;9.290;2023-12-04T12:46:22;17.80;;;12.27;;
57856;SDS011;43683;48.650;9.290;2023-12-04T12:48:47;20.45;;;13.07;;
57856;SDS011;43683;48.650;9.290;2023-12-04T12:51:13;21.92;;;13.95;;
57856;SDS011;43683;48.650;9.290;2023-12-04T12:53:39;20.70;;;13.13;;
57856;SDS011;43683;48.650;9.290;2023-12-04T12:56:05;24.38;;;13.88;;
57856;SDS011;43683;48.650;9.290;2023-12-04T12:58:33;19.38;;;12.50;;
57856;SDS011;43683;48.650;9.290;2023-12-04T13:00:59;22.83;;;14.38;;
57856;SDS011;43683;48.650;9.290;2023-12-04T13:03:25;21.92;;;13.52;;
57856;SDS011;43683;48.650;9.290;2023-12-04T13:05:51;25.70;;;14.00;;
57856;SDS011;43683;48.650;9.290;2023-12-04T13:08:16;20.50;;;12.85;;
57856;SDS011;43683;48.650;9.290;2023-12-04T13:10:42;18.77;;;12.07;;
57856;SDS011;43683;48.650;9.290;2023-12-04T13:13:11;20.27;;;13.07;;
57856;SDS011;43683;48.650;9.290;2023-12-04T13:15:37;23.52;;;12.77;;
57856;SDS011;43683;48.650;9.290;2023-12-04T13:18:03;20.30;;;13.18;;
57856;SDS011;43683;48.650;9.290;2023-12-04T13:20:29;17.63;;;11.88;;
57856;SDS011;43683;48.650;9.290;2023-12-04T13:22:54;15.38;;;10.75;;
57856;SDS011;43683;48.650;9.290;2023-12-04T13:25:19;18.83;;;11.27;;
57856;SDS011;43683;48.650;9.290;2023-12-04T13:27:45;18.70;;;10.98;;
57856;SDS011;43683;48.650;9.290;2023-12-04T13:30:11;16.52;;;10.88;;
57856;SDS011;43683;48.650;9.290;2023-12-04T13:32:40;16.10;;;10.77;;
57856;SDS011;43683;48.650;9.290;2023-12-04T13:35:06;17.58;;;11.50;;
57856;SDS011;43683;48.650;9.290;2023-12-04T13:37:36;17.25;;;11.30;;
57856;SDS011;43683;48.650;9.290;2023-12-04T13:40:03;15.77;;;10.88;;
57856;SDS011;43683;48.650;9.290;2023-12-04T13:42:34;17.25;;;11.43;;
57856;SDS011;43683;48.650;9.290;2023-12-04T13:45:19;18.55;;;11.23;;
57856;SDS011;43683;48.650;9.290;2023-12-04T13:47:50;15.63;;;10.98;;
57856;SDS011;43683;48.650;9.290;2023-12-04T13:50:18;20.75;;;13.57;;
57856;SDS011;43683;48.650;9.290;2023-12-04T13:52:43;18.23;;;11.63;;
57856;SDS011;43683;48.650;9.290;2023-12-04T13:55:09;18.05;;;11.30;;
57856;SDS011;43683;48.650;9.290;2023-12-04T13:57:46;18.27;;;11.38;;
57856;SDS011;43683;48.650;9.290;2023-12-04T14:00:24;17.85;;;11.68;;
57856;SDS011;43683;48.650;9.290;2023-12-04T14:02:50;28.63;;;16.45;;
57856;SDS011;43683;48.650;9.290;2023-12-04T14:05:19;17.83;;;12.75;;
57856;SDS011;43683;48.650;9.290;2023-12-04T14:07:47;18.50;;;11.95;;
57856;SDS011;43683;48.650;9.290;2023-12-04T14:10:13;18.48;;;11.80;;
57856;SDS011;43683;48.650;9.290;2023-12-04T14:12:39;19.83;;;12.55;;
57856;SDS011;43683;48.650;9.290;2023-12-04T14:15:05;20.02;;;12.20;;
57856;SDS011;43683;48.650;9.290;2023-12-04T14:17:31;18.27;;;11.57;;
57856;SDS011;43683;48.650;9.290;2023-12-04T14:19:56;20.73;;;13.00;;
57856;SDS011;43683;48.650;9.290;2023-12-04T14:22:22;24.73;;;15.95;;